createdAt,value
2018-10-17T00:01:08.604Z,8.17
2018-10-17T00:03:37.250Z,7.87
2018-10-17T00:06:06.078Z,7.17
2018-10-17T00:08:34.701Z,7.30
2018-10-17T00:11:03.420Z,7.27
2018-10-17T00:13:32.037Z,19.83
2018-10-17T00:16:00.617Z,14.43
2018-10-17T00:18:29.157Z,7.60
2018-10-17T00:20:57.678Z,6.57
2018-10-17T00:23:26.220Z,6.60
2018-10-17T00:25:54.704Z,6.67
2018-10-17T00:28:23.251Z,6.90
2018-10-17T00:30:51.923Z,7.00
2018-10-17T00:33:20.423Z,6.37
2018-10-17T00:35:48.952Z,6.60
2018-10-17T00:38:17.508Z,6.57
2018-10-17T00:40:46.071Z,6.97
2018-10-17T00:43:14.718Z,9.33
2018-10-17T00:48:13.538Z,7.27
2018-10-17T00:50:42.157Z,6.40
2018-10-17T00:53:10.838Z,6.50
2018-10-17T00:55:39.338Z,6.40
2018-10-17T00:58:07.898Z,6.60
2018-10-17T01:00:36.471Z,8.90
2018-10-17T01:03:05.132Z,6.73
2018-10-17T01:05:33.678Z,6.97
2018-10-17T01:08:02.293Z,7.13
2018-10-17T01:10:30.866Z,7.13
2018-10-17T01:12:59.395Z,6.63
2018-10-17T01:15:28.026Z,6.50
2018-10-17T01:17:56.527Z,7.23
2018-10-17T01:20:25.179Z,6.50
2018-10-17T01:22:53.748Z,6.80
2018-10-17T01:25:22.277Z,6.93
2018-10-17T01:27:50.753Z,7.10
2018-10-17T01:30:21.552Z,7.13
2018-10-17T01:32:50.107Z,6.97
2018-10-17T01:35:18.730Z,6.97
2018-10-17T01:37:47.363Z,7.23
2018-10-17T01:40:15.940Z,6.30
2018-10-17T01:42:44.494Z,7.13
2018-10-17T01:45:13.043Z,6.27
2018-10-17T01:47:41.590Z,6.57
2018-10-17T01:50:10.267Z,7.10
2018-10-17T01:52:38.784Z,7.40
2018-10-17T01:55:08.032Z,7.23
2018-10-17T01:57:36.977Z,6.70
2018-10-17T02:00:05.857Z,7.03
2018-10-17T02:02:34.382Z,7.07
2018-10-17T02:05:03.043Z,7.47
2018-10-17T02:07:31.544Z,7.50
2018-10-17T02:10:00.162Z,7.67
2018-10-17T02:12:28.749Z,6.97
2018-10-17T02:14:57.282Z,7.23
2018-10-17T02:17:25.813Z,7.20
2018-10-17T02:19:54.295Z,7.20
2018-10-17T02:22:22.881Z,7.00
2018-10-17T02:24:51.562Z,7.10
2018-10-17T02:27:20.148Z,7.63
2018-10-17T02:29:48.764Z,7.40
2018-10-17T02:32:17.302Z,7.17
2018-10-17T02:34:51.086Z,6.67
2018-10-17T02:37:19.638Z,7.20
2018-10-17T02:39:48.329Z,7.97
2018-10-17T02:42:16.932Z,8.67
2018-10-17T02:44:45.971Z,16.33
2018-10-17T02:47:14.690Z,17.00
2018-10-17T02:49:43.094Z,8.53
2018-10-17T02:52:11.716Z,7.80
2018-10-17T02:54:40.274Z,7.90
2018-10-17T02:57:08.883Z,9.03
2018-10-17T02:59:37.486Z,7.53
2018-10-17T03:02:06.044Z,8.30
2018-10-17T03:04:34.554Z,8.27
2018-10-17T03:07:03.450Z,7.60
2018-10-17T03:09:31.940Z,7.93
2018-10-17T03:12:01.209Z,8.70
2018-10-17T03:14:29.688Z,7.30
2018-10-17T03:16:58.227Z,7.60
2018-10-17T03:19:26.895Z,8.30
2018-10-17T03:21:55.453Z,7.63
2018-10-17T03:24:24.072Z,8.10
2018-10-17T03:26:52.651Z,8.43
2018-10-17T03:29:21.239Z,8.40
2018-10-17T03:31:49.779Z,8.07
2018-10-17T03:34:18.360Z,7.60
2018-10-17T03:36:46.977Z,7.60
2018-10-17T03:39:15.512Z,8.53
2018-10-17T03:41:44.029Z,8.07
2018-10-17T03:44:12.558Z,14.30
2018-10-17T03:46:41.054Z,9.03
2018-10-17T03:49:09.782Z,8.87
2018-10-17T03:51:38.181Z,7.80
2018-10-17T03:54:06.905Z,8.40
2018-10-17T03:56:35.414Z,8.20
2018-10-17T03:59:04.080Z,8.00
2018-10-17T04:01:32.531Z,7.80
2018-10-17T04:04:01.123Z,7.90
2018-10-17T04:06:29.775Z,8.40
2018-10-17T04:08:58.388Z,7.70
2018-10-17T04:11:27.227Z,8.70
2018-10-17T04:13:55.871Z,8.77
2018-10-17T04:16:24.379Z,9.83
2018-10-17T04:18:52.950Z,9.97
2018-10-17T04:21:21.371Z,8.70
2018-10-17T04:23:49.954Z,9.13
2018-10-17T04:26:18.502Z,8.87
2018-10-17T04:28:47.051Z,8.07
2018-10-17T04:31:15.585Z,9.10
2018-10-17T04:33:44.093Z,8.83
2018-10-17T04:36:12.635Z,9.13
2018-10-17T04:38:41.238Z,9.10
2018-10-17T04:41:09.910Z,9.20
2018-10-17T04:43:38.386Z,10.50
2018-10-17T04:46:06.998Z,10.07
2018-10-17T04:48:35.618Z,9.00
2018-10-17T04:51:04.252Z,8.70
2018-10-17T04:53:32.817Z,9.70
2018-10-17T04:56:01.602Z,9.80
2018-10-17T04:58:30.149Z,8.87
2018-10-17T05:00:58.749Z,7.53
2018-10-17T05:03:27.350Z,9.90
2018-10-17T05:05:55.855Z,9.30
2018-10-17T05:08:25.235Z,9.10
2018-10-17T05:10:53.828Z,9.70
2018-10-17T05:13:22.359Z,8.90
2018-10-17T05:15:50.914Z,10.20
2018-10-17T05:18:20.525Z,11.57
2018-10-17T05:20:49.142Z,10.07
2018-10-17T05:23:17.653Z,8.30
2018-10-17T05:25:46.250Z,9.93
2018-10-17T05:28:14.747Z,10.20
2018-10-17T05:30:47.391Z,9.70
2018-10-17T05:33:20.937Z,9.23
2018-10-17T05:35:50.037Z,8.90
2018-10-17T05:38:18.937Z,10.10
2018-10-17T05:40:47.479Z,8.77
2018-10-17T05:43:16.029Z,9.27
2018-10-17T05:45:44.563Z,10.10
2018-10-17T05:48:13.107Z,9.20
2018-10-17T05:50:41.753Z,9.60
2018-10-17T05:53:10.442Z,9.60
2018-10-17T05:55:39.105Z,9.33
2018-10-17T05:58:07.713Z,9.90
2018-10-17T06:00:36.320Z,10.17
2018-10-17T06:03:05.423Z,9.93
2018-10-17T06:05:34.020Z,10.60
2018-10-17T06:08:02.643Z,10.83
2018-10-17T06:10:31.227Z,10.47
2018-10-17T06:12:59.811Z,11.93
2018-10-17T06:15:28.530Z,11.83
2018-10-17T06:17:57.613Z,11.20
2018-10-17T06:20:26.455Z,9.87
2018-10-17T06:22:55.470Z,10.60
2018-10-17T06:25:24.360Z,9.87
2018-10-17T06:27:52.985Z,10.20
2018-10-17T06:30:21.496Z,11.27
2018-10-17T06:32:50.037Z,13.77
2018-10-17T06:35:18.999Z,10.13
2018-10-17T06:37:47.532Z,9.73
2018-10-17T06:40:16.136Z,10.87
2018-10-17T06:42:44.744Z,11.47
2018-10-17T06:45:13.307Z,10.07
2018-10-17T06:47:41.882Z,9.97
2018-10-17T06:50:10.719Z,10.87
2018-10-17T06:52:39.325Z,11.43
2018-10-17T06:55:08.536Z,10.20
2018-10-17T06:57:37.476Z,10.77
2018-10-17T07:00:07.821Z,10.30
2018-10-17T07:02:36.366Z,10.97
2018-10-17T07:05:04.951Z,11.47
2018-10-17T07:07:33.519Z,11.30
2018-10-17T07:10:02.105Z,13.00
2018-10-17T07:12:30.657Z,11.60
2018-10-17T07:14:59.195Z,12.23
2018-10-17T07:17:31.255Z,11.73
2018-10-17T07:19:59.723Z,13.20
2018-10-17T07:22:28.247Z,13.33
2018-10-17T07:24:56.813Z,13.03
2018-10-17T07:27:25.347Z,14.10
2018-10-17T07:29:53.984Z,17.53
2018-10-17T07:32:22.482Z,16.83
2018-10-17T07:34:51.532Z,16.40
2018-10-17T07:37:20.439Z,16.07
2018-10-17T07:39:49.387Z,14.00
2018-10-17T07:42:18.333Z,14.40
2018-10-17T07:44:47.246Z,14.23
2018-10-17T07:47:16.205Z,15.23
2018-10-17T07:49:45.221Z,13.57
2018-10-17T07:52:14.519Z,14.63
2018-10-17T07:54:43.029Z,14.43
2018-10-17T07:57:12.235Z,14.27
2018-10-17T07:59:41.051Z,15.27
2018-10-17T08:02:09.557Z,16.77
2018-10-17T08:04:38.169Z,15.80
2018-10-17T08:07:07.205Z,15.80
2018-10-17T08:09:35.783Z,19.20
2018-10-17T08:12:04.827Z,15.37
2018-10-17T08:14:34.155Z,16.50
2018-10-17T08:17:03.258Z,16.10
2018-10-17T08:19:31.752Z,16.83
2018-10-17T08:22:00.397Z,15.60
2018-10-17T08:24:28.969Z,15.43
2018-10-17T08:26:57.734Z,16.87
2018-10-17T08:29:26.525Z,15.60
2018-10-17T08:31:55.129Z,16.77
2018-10-17T08:34:24.068Z,15.07
2018-10-17T08:36:53.333Z,15.70
2018-10-17T08:39:22.126Z,14.60
2018-10-17T08:41:51.161Z,16.67
2018-10-17T08:44:19.848Z,14.77
2018-10-17T08:46:48.416Z,17.43
2018-10-17T08:49:17.302Z,16.80
2018-10-17T08:51:45.921Z,20.03
2018-10-17T08:54:14.476Z,15.53
2018-10-17T08:56:42.981Z,17.07
2018-10-17T08:59:11.541Z,14.80
2018-10-17T09:01:40.148Z,16.23
2018-10-17T09:04:08.717Z,12.60
2018-10-17T09:06:37.366Z,14.77
2018-10-17T09:09:10.426Z,14.50
2018-10-17T09:11:39.657Z,15.80
2018-10-17T09:14:08.876Z,15.90
2018-10-17T09:16:37.497Z,15.10
2018-10-17T09:19:06.611Z,14.97
2018-10-17T09:21:35.570Z,16.07
2018-10-17T09:24:03.740Z,16.57
2018-10-17T09:26:32.322Z,16.80
2018-10-17T09:29:01.335Z,16.97
2018-10-17T09:31:31.295Z,16.53
2018-10-17T09:33:59.958Z,17.37
2018-10-17T09:36:28.429Z,17.53
2018-10-17T09:38:57.048Z,17.80
2018-10-17T09:41:25.587Z,17.67
2018-10-17T09:43:54.269Z,16.13
2018-10-17T09:46:22.819Z,16.53
2018-10-17T09:48:51.387Z,15.87
2018-10-17T09:51:19.855Z,16.30
2018-10-17T09:53:48.893Z,17.40
2018-10-17T09:56:17.982Z,15.80
2018-10-17T09:58:48.108Z,16.20
2018-10-17T10:01:22.273Z,14.20
2018-10-17T10:03:51.483Z,15.63
2018-10-17T10:06:20.522Z,16.33
2018-10-17T10:08:49.271Z,15.60
2018-10-17T10:11:18.217Z,16.33
2018-10-17T10:13:47.234Z,15.63
2018-10-17T10:16:15.960Z,15.87
2018-10-17T10:18:44.432Z,15.90
2018-10-17T10:21:12.877Z,15.50
2018-10-17T10:23:41.389Z,15.63
2018-10-17T10:26:10.196Z,15.97
2018-10-17T10:28:39.015Z,15.43
2018-10-17T10:31:08.444Z,14.70
2018-10-17T10:33:36.968Z,15.70
2018-10-17T10:36:05.766Z,15.90
2018-10-17T10:38:34.302Z,14.80
2018-10-17T10:41:02.785Z,14.77
2018-10-17T10:43:31.379Z,14.73
2018-10-17T10:45:59.931Z,14.83
2018-10-17T10:48:28.946Z,13.77
2018-10-17T10:50:57.823Z,27.60
2018-10-17T10:53:27.558Z,25.63
2018-10-17T10:55:57.637Z,14.63
2018-10-17T10:58:26.357Z,17.43
2018-10-17T11:00:57.640Z,14.77
2018-10-17T11:03:26.468Z,16.07
2018-10-17T11:05:55.078Z,15.13
2018-10-17T11:08:23.716Z,13.87
2018-10-17T11:10:52.581Z,13.57
2018-10-17T11:13:21.221Z,14.03
2018-10-17T11:15:49.759Z,15.17
2018-10-17T11:18:18.604Z,16.10
2018-10-17T11:20:47.202Z,14.77
2018-10-17T11:23:15.715Z,15.07
2018-10-17T11:25:44.258Z,14.60
2018-10-17T11:28:13.094Z,15.57
2018-10-17T11:30:42.062Z,13.70
2018-10-17T11:33:10.952Z,14.10
2018-10-17T11:35:39.518Z,14.47
2018-10-17T11:38:08.030Z,13.83
2018-10-17T11:40:37.398Z,14.67
2018-10-17T11:43:06.505Z,14.47
2018-10-17T11:45:35.495Z,13.30
2018-10-17T11:48:04.289Z,13.00
2018-10-17T11:50:33.319Z,13.50
2018-10-17T11:53:02.369Z,12.97
2018-10-17T11:55:31.493Z,13.20
2018-10-17T11:58:01.185Z,13.60
2018-10-17T12:00:30.259Z,13.07
2018-10-17T12:02:59.257Z,12.60
2018-10-17T12:05:28.570Z,12.03
2018-10-17T12:07:58.384Z,15.63
2018-10-17T12:10:28.132Z,13.37
2018-10-17T12:12:56.985Z,13.03
2018-10-17T12:15:29.103Z,12.37
2018-10-17T12:17:58.038Z,13.13
2018-10-17T12:20:26.991Z,13.40
2018-10-17T12:22:55.905Z,13.07
2018-10-17T12:25:25.022Z,12.70
2018-10-17T12:27:54.089Z,13.53
2018-10-17T12:30:22.989Z,12.40
2018-10-17T12:32:51.900Z,12.93
2018-10-17T12:35:22.818Z,15.00
2018-10-17T12:37:51.817Z,11.73
2018-10-17T12:40:20.923Z,12.63
2018-10-17T12:42:49.841Z,11.37
2018-10-17T12:45:18.900Z,11.53
2018-10-17T12:47:47.467Z,12.00
2018-10-17T12:50:16.054Z,12.00
2018-10-17T12:52:44.655Z,13.03
2018-10-17T12:55:13.462Z,12.57
2018-10-17T12:57:42.387Z,13.13
2018-10-17T13:00:11.406Z,12.63
2018-10-17T13:02:40.540Z,13.67
2018-10-17T13:05:10.457Z,13.20
2018-10-17T13:07:39.753Z,12.27
2018-10-17T13:10:09.714Z,10.80
2018-10-17T13:12:38.425Z,11.83
2018-10-17T13:15:09.075Z,12.40
2018-10-17T13:17:37.953Z,12.33
2018-10-17T13:20:07.015Z,11.03
2018-10-17T13:22:35.632Z,11.30
2018-10-17T13:25:04.165Z,10.30
2018-10-17T13:27:33.294Z,10.07
2018-10-17T13:30:02.138Z,10.53
2018-10-17T13:32:30.655Z,9.70
2018-10-17T13:34:59.260Z,9.77
2018-10-17T13:37:27.746Z,9.07
2018-10-17T13:39:56.223Z,9.83
2018-10-17T13:42:24.767Z,11.10
2018-10-17T13:44:53.320Z,10.30
2018-10-17T13:47:22.048Z,10.23
2018-10-17T13:49:50.759Z,10.00
2018-10-17T13:52:19.293Z,10.03
2018-10-17T13:54:47.949Z,11.13
2018-10-17T13:57:16.676Z,10.67
2018-10-17T13:59:45.406Z,10.53
2018-10-17T14:02:13.989Z,10.90
2018-10-17T14:04:42.508Z,10.43
2018-10-17T14:07:11.403Z,9.93
2018-10-17T14:09:40.033Z,8.73
2018-10-17T14:12:08.762Z,9.77
2018-10-17T14:14:37.328Z,8.90
2018-10-17T14:17:06.070Z,9.60
2018-10-17T14:19:34.701Z,8.90
2018-10-17T14:22:03.204Z,8.90
2018-10-17T14:24:31.937Z,9.37
2018-10-17T14:27:00.741Z,8.97
2018-10-17T14:29:29.445Z,9.23
2018-10-17T14:31:58.269Z,9.50
2018-10-17T14:37:10.108Z,10.37
2018-10-17T14:39:38.630Z,9.63
2018-10-17T14:42:07.333Z,11.40
2018-10-17T14:44:35.959Z,10.20
2018-10-17T14:47:04.532Z,10.30
2018-10-17T14:49:33.134Z,11.97
2018-10-17T14:52:02.183Z,10.97
2018-10-17T14:54:30.732Z,10.00
2018-10-17T14:56:59.480Z,10.23
2018-10-17T14:59:27.999Z,11.93
2018-10-17T15:01:56.529Z,10.30
2018-10-17T15:04:25.082Z,9.93
2018-10-17T15:06:53.672Z,11.10
2018-10-17T15:09:22.145Z,11.13
2018-10-17T15:11:50.922Z,9.93
2018-10-17T15:14:19.268Z,9.87
2018-10-17T15:16:47.878Z,9.67
2018-10-17T15:19:16.436Z,9.03
2018-10-17T15:21:45.495Z,8.97
2018-10-17T15:24:14.023Z,9.03
2018-10-17T15:26:42.570Z,9.00
2018-10-17T15:29:11.134Z,26.00
2018-10-17T15:31:39.694Z,11.37
2018-10-17T15:34:08.329Z,9.70
2018-10-17T15:36:36.940Z,9.97
2018-10-17T15:39:07.704Z,10.77
2018-10-17T15:41:36.194Z,10.00
2018-10-17T15:44:04.714Z,9.20
2018-10-17T15:46:33.259Z,10.20
2018-10-17T15:49:01.881Z,9.80
2018-10-17T15:51:30.401Z,10.20
2018-10-17T15:53:59.005Z,10.90
2018-10-17T15:56:27.464Z,11.70
2018-10-17T15:58:56.009Z,11.20
2018-10-17T16:01:24.543Z,11.23
2018-10-17T16:03:53.072Z,10.73
2018-10-17T16:06:21.633Z,12.97
2018-10-17T16:08:50.138Z,13.80
2018-10-17T16:11:18.816Z,11.27
2018-10-17T16:13:47.541Z,11.20
2018-10-17T16:16:16.116Z,12.17
2018-10-17T16:18:45.312Z,12.53
2018-10-17T16:21:14.510Z,10.70
2018-10-17T16:23:43.060Z,11.30
2018-10-17T16:26:11.558Z,15.40
2018-10-17T16:28:40.178Z,16.83
2018-10-17T16:31:08.820Z,13.23
2018-10-17T16:33:37.342Z,10.67
2018-10-17T16:36:06.323Z,11.70
2018-10-17T16:38:35.315Z,10.17
2018-10-17T16:41:04.354Z,10.63
2018-10-17T16:43:33.371Z,11.47
2018-10-17T16:46:02.286Z,10.47
2018-10-17T16:48:31.324Z,10.60
2018-10-17T16:51:00.272Z,10.47
2018-10-17T16:53:29.300Z,10.63
2018-10-17T16:55:58.364Z,11.10
2018-10-17T16:58:27.592Z,10.97
2018-10-17T17:00:56.606Z,12.93
2018-10-17T17:03:25.731Z,11.37
2018-10-17T17:05:54.978Z,10.40
2018-10-17T17:08:24.333Z,10.67
2018-10-17T17:10:54.144Z,12.00
2018-10-17T17:13:23.186Z,11.30
2018-10-17T17:15:52.168Z,12.00
2018-10-17T17:18:21.207Z,12.23
2018-10-17T17:20:50.114Z,11.50
2018-10-17T17:23:19.128Z,10.93
2018-10-17T17:25:48.109Z,11.63
2018-10-17T17:28:17.436Z,11.17
2018-10-17T17:30:46.509Z,11.20
2018-10-17T17:33:15.656Z,10.23
2018-10-17T17:35:44.604Z,12.53
2018-10-17T17:38:13.587Z,13.27
2018-10-17T17:40:42.652Z,11.10
2018-10-17T17:43:11.559Z,10.20
2018-10-17T17:45:40.555Z,12.97
2018-10-17T17:48:09.601Z,12.73
2018-10-17T17:50:38.585Z,12.73
2018-10-17T17:53:07.177Z,12.37
2018-10-17T17:55:35.781Z,13.07
2018-10-17T17:58:04.461Z,11.60
2018-10-17T18:00:32.964Z,9.77
2018-10-17T18:03:01.505Z,9.93
2018-10-17T18:05:30.200Z,10.50
2018-10-17T18:07:58.724Z,11.50
2018-10-17T18:10:27.206Z,11.00
2018-10-17T18:12:55.876Z,10.73
2018-10-17T18:15:31.843Z,13.00
2018-10-17T18:18:00.634Z,11.50
2018-10-17T18:20:29.371Z,11.27
2018-10-17T18:22:57.925Z,12.80
2018-10-17T18:25:26.468Z,10.77
2018-10-17T18:27:57.572Z,10.37
2018-10-17T18:30:26.093Z,11.17
2018-10-17T18:32:54.650Z,10.50
2018-10-17T18:35:23.304Z,9.30
2018-10-17T18:37:51.917Z,10.30
2018-10-17T18:40:20.469Z,9.17
2018-10-17T18:42:49.191Z,9.80
2018-10-17T18:45:17.893Z,12.63
2018-10-17T18:47:46.502Z,10.97
2018-10-17T18:50:15.761Z,10.90
2018-10-17T18:52:44.307Z,11.17
2018-10-17T18:55:12.946Z,12.33
2018-10-17T18:57:41.768Z,11.10
2018-10-17T19:00:11.165Z,11.03
2018-10-17T19:02:40.114Z,11.80
2018-10-17T19:05:08.767Z,11.43
2018-10-17T19:07:37.322Z,11.90
2018-10-17T19:10:06.165Z,12.10
2018-10-17T19:12:34.747Z,10.57
2018-10-17T19:15:03.478Z,11.30
2018-10-17T19:17:32.020Z,11.20
2018-10-17T19:20:00.690Z,10.90
2018-10-17T19:22:29.261Z,11.50
2018-10-17T19:24:57.770Z,11.53
2018-10-17T19:27:26.357Z,11.17
2018-10-17T19:29:55.352Z,12.23
2018-10-17T19:32:23.927Z,10.80
2018-10-17T19:34:54.181Z,13.27
2018-10-17T19:37:22.759Z,12.10
2018-10-17T19:39:51.631Z,11.80
2018-10-17T19:42:20.397Z,11.73
2018-10-17T19:44:49.155Z,11.77
2018-10-17T19:47:17.729Z,11.37
2018-10-17T19:49:46.617Z,11.40
2018-10-17T19:52:15.433Z,10.83
2018-10-17T19:54:44.211Z,11.40
2018-10-17T19:57:17.009Z,12.40
2018-10-17T19:59:45.489Z,12.47
2018-10-17T20:02:14.277Z,11.03
2018-10-17T20:04:42.977Z,11.57
2018-10-17T20:07:11.666Z,11.20
2018-10-17T20:09:40.376Z,10.77
2018-10-17T20:12:09.310Z,11.33
2018-10-17T20:14:37.975Z,13.13
2018-10-17T20:17:06.994Z,11.30
2018-10-17T20:21:59.852Z,11.03
2018-10-17T20:24:28.544Z,11.03
2018-10-17T20:26:57.476Z,10.73
2018-10-17T20:29:26.070Z,11.43
2018-10-17T20:31:54.972Z,11.20
2018-10-17T20:34:23.567Z,11.83
2018-10-17T20:36:52.346Z,10.80
2018-10-17T20:39:21.072Z,11.07
2018-10-17T20:41:50.020Z,11.20
2018-10-17T20:44:19.497Z,10.37
2018-10-17T20:46:48.654Z,10.80
2018-10-17T20:49:17.247Z,10.60
2018-10-17T20:51:47.631Z,11.57
2018-10-17T20:54:16.994Z,10.57
2018-10-17T20:56:45.873Z,10.27
2018-10-17T20:59:14.948Z,9.80
2018-10-17T21:01:44.410Z,9.77
2018-10-17T21:04:13.025Z,11.27
2018-10-17T21:06:43.327Z,10.50
2018-10-17T21:09:13.721Z,10.43
2018-10-17T21:11:43.561Z,10.80
2018-10-17T21:14:13.250Z,11.13
2018-10-17T21:16:44.166Z,10.73
2018-10-17T21:19:13.108Z,10.07
2018-10-17T21:21:42.274Z,10.33
2018-10-17T21:24:11.372Z,11.73
2018-10-17T21:26:44.220Z,11.30
2018-10-17T21:29:13.947Z,10.87
2018-10-17T21:31:43.797Z,10.63
2018-10-17T21:34:13.407Z,11.63
2018-10-17T21:36:42.469Z,11.70
2018-10-17T21:39:14.392Z,11.17
2018-10-17T21:41:47.670Z,11.03
2018-10-17T21:44:23.117Z,10.60
2018-10-17T21:46:53.970Z,11.13
2018-10-17T21:49:22.568Z,11.20
2018-10-17T21:51:51.123Z,10.10
2018-10-17T21:54:20.072Z,9.70
2018-10-17T21:56:48.798Z,9.57
2018-10-17T21:59:17.514Z,10.50
2018-10-17T22:01:46.494Z,10.63
2018-10-17T22:04:15.452Z,9.20
2018-10-17T22:06:44.375Z,10.23
2018-10-17T22:09:14.251Z,9.70
2018-10-17T22:11:43.003Z,10.20
2018-10-17T22:14:11.604Z,10.53
2018-10-17T22:16:45.762Z,10.33
2018-10-17T22:19:14.619Z,10.03
2018-10-17T22:21:43.090Z,10.33
2018-10-17T22:24:12.139Z,11.17
2018-10-17T22:26:42.300Z,10.73
2018-10-17T22:29:11.598Z,11.67
2018-10-17T22:31:40.615Z,10.93
2018-10-17T22:34:10.436Z,10.07
2018-10-17T22:36:39.139Z,10.70
2018-10-17T22:39:11.788Z,10.07
2018-10-17T22:41:40.286Z,10.13
2018-10-17T22:44:09.120Z,10.07
2018-10-17T22:46:37.659Z,10.53
2018-10-17T22:49:06.958Z,10.17
2018-10-17T22:51:35.585Z,9.23
2018-10-17T22:54:04.492Z,10.00
2018-10-17T22:56:33.017Z,9.87
2018-10-17T22:59:01.553Z,9.77
2018-10-17T23:01:30.056Z,8.97
2018-10-17T23:03:58.650Z,9.43
2018-10-17T23:06:27.219Z,9.60
2018-10-17T23:08:55.782Z,9.87
2018-10-17T23:11:24.444Z,9.90
2018-10-17T23:13:53.525Z,10.37
2018-10-17T23:16:22.110Z,9.30
2018-10-17T23:18:50.766Z,9.53
2018-10-17T23:21:19.293Z,9.70
2018-10-17T23:23:47.871Z,9.53
2018-10-17T23:26:16.537Z,9.00
2018-10-17T23:28:44.989Z,9.87
2018-10-17T23:31:13.646Z,8.50
2018-10-17T23:33:42.181Z,8.60
2018-10-17T23:36:10.749Z,9.37
2018-10-17T23:38:39.450Z,8.90
2018-10-17T23:41:08.021Z,9.13
2018-10-17T23:43:36.567Z,7.93
2018-10-17T23:46:05.200Z,8.33
2018-10-17T23:48:33.780Z,8.50
2018-10-17T23:51:03.254Z,8.40
2018-10-17T23:53:31.789Z,9.53
2018-10-17T23:56:00.280Z,8.70
2018-10-17T23:58:28.833Z,8.53
